sensor_id;sensor_type;location;lat;lon;timestamp;temperature;humidity
29207;DHT22;16247;50.840;4.382;2023-05-07T00:01:30;17.80;99.90
29207;DHT22;16247;50.840;4.382;2023-05-07T00:04:17;17.90;99.90
29207;DHT22;16247;50.840;4.382;2023-05-07T00:06:47;17.80;99.90
29207;DHT22;16247;50.840;4.382;2023-05-07T00:11:58;17.80;99.90
29207;DHT22;16247;50.840;4.382;2023-05-07T00:14:25;17.40;99.90
29207;DHT22;16247;50.840;4.382;2023-05-07T00:16:52;17.60;99.90
29207;DHT22;16247;50.840;4.382;2023-05-07T00:19:18;17.50;99.90
29207;DHT22;16247;50.840;4.382;2023-05-07T00:21:44;17.60;99.90
29207;DHT22;16247;50.840;4.382;2023-05-07T00:26:47;17.80;99.90
29207;DHT22;16247;50.840;4.382;2023-05-07T00:29:18;17.70;99.90
29207;DHT22;16247;50.840;4.382;2023-05-07T00:34:49;17.80;99.90
29207;DHT22;16247;50.840;4.382;2023-05-07T00:37:19;17.90;99.90
29207;DHT22;16247;50.840;4.382;2023-05-07T00:42:52;17.90;99.90
29207;DHT22;16247;50.840;4.382;2023-05-07T00:45:26;17.80;99.90
29207;DHT22;16247;50.840;4.382;2023-05-07T00:50:55;17.80;99.90
29207;DHT22;16247;50.840;4.382;2023-05-07T00:55:54;17.70;99.90
29207;DHT22;16247;50.840;4.382;2023-05-07T00:58:26;17.70;99.90
29207;DHT22;16247;50.840;4.382;2023-05-07T01:00:51;17.80;99.90
29207;DHT22;16247;50.840;4.382;2023-05-07T01:03:18;17.80;99.90
29207;DHT22;16247;50.840;4.382;2023-05-07T01:05:44;17.90;99.90
29207;DHT22;16247;50.840;4.382;2023-05-07T01:08:11;17.80;99.90
29207;DHT22;16247;50.840;4.382;2023-05-07T01:10:43;17.80;99.90
29207;DHT22;16247;50.840;4.382;2023-05-07T01:13:10;17.80;99.90
29207;DHT22;16247;50.840;4.382;2023-05-07T01:15:55;17.70;99.90
29207;DHT22;16247;50.840;4.382;2023-05-07T01:18:26;17.60;99.90
29207;DHT22;16247;50.840;4.382;2023-05-07T01:20:58;17.70;99.90
29207;DHT22;16247;50.840;4.382;2023-05-07T01:26:32;17.40;99.90
29207;DHT22;16247;50.840;4.382;2023-05-07T01:29:02;17.60;99.90
29207;DHT22;16247;50.840;4.382;2023-05-07T01:31:29;17.50;99.90
29207;DHT22;16247;50.840;4.382;2023-05-07T01:33:57;17.60;99.90
29207;DHT22;16247;50.840;4.382;2023-05-07T01:36:24;17.50;99.90
29207;DHT22;16247;50.840;4.382;2023-05-07T01:38:54;17.50;99.90
29207;DHT22;16247;50.840;4.382;2023-05-07T01:41:27;17.30;99.90
29207;DHT22;16247;50.840;4.382;2023-05-07T01:43:54;17.50;99.90
29207;DHT22;16247;50.840;4.382;2023-05-07T01:46:20;17.60;99.90
29207;DHT22;16247;50.840;4.382;2023-05-07T01:48:50;17.40;99.90
29207;DHT22;16247;50.840;4.382;2023-05-07T01:51:17;17.40;99.90
29207;DHT22;16247;50.840;4.382;2023-05-07T01:53:42;17.50;99.90
29207;DHT22;16247;50.840;4.382;2023-05-07T01:56:10;17.40;99.90
29207;DHT22;16247;50.840;4.382;2023-05-07T01:58:36;17.40;99.90
29207;DHT22;16247;50.840;4.382;2023-05-07T02:01:03;17.30;99.90
29207;DHT22;16247;50.840;4.382;2023-05-07T02:03:29;17.20;99.90
29207;DHT22;16247;50.840;4.382;2023-05-07T02:05:54;17.20;99.90
29207;DHT22;16247;50.840;4.382;2023-05-07T02:08:20;17.20;99.90
29207;DHT22;16247;50.840;4.382;2023-05-07T02:10:46;17.00;99.90
29207;DHT22;16247;50.840;4.382;2023-05-07T02:13:12;17.20;99.90
29207;DHT22;16247;50.840;4.382;2023-05-07T02:15:38;17.20;99.90
29207;DHT22;16247;50.840;4.382;2023-05-07T02:18:05;17.10;99.90
29207;DHT22;16247;50.840;4.382;2023-05-07T02:20:31;17.10;99.90
29207;DHT22;16247;50.840;4.382;2023-05-07T02:22:57;17.20;99.90
29207;DHT22;16247;50.840;4.382;2023-05-07T02:25:22;17.30;99.90
29207;DHT22;16247;50.840;4.382;2023-05-07T02:27:48;17.40;99.90
29207;DHT22;16247;50.840;4.382;2023-05-07T02:30:14;17.30;99.90
29207;DHT22;16247;50.840;4.382;2023-05-07T02:32:40;17.10;99.90
29207;DHT22;16247;50.840;4.382;2023-05-07T02:35:06;17.00;99.90
29207;DHT22;16247;50.840;4.382;2023-05-07T02:37:33;17.00;99.90
29207;DHT22;16247;50.840;4.382;2023-05-07T02:39:59;16.90;99.90
29207;DHT22;16247;50.840;4.382;2023-05-07T02:42:24;16.90;99.90
29207;DHT22;16247;50.840;4.382;2023-05-07T02:44:50;16.90;99.90
29207;DHT22;16247;50.840;4.382;2023-05-07T02:47:16;16.90;99.90
29207;DHT22;16247;50.840;4.382;2023-05-07T02:49:43;16.80;99.90
29207;DHT22;16247;50.840;4.382;2023-05-07T02:52:09;16.80;99.90
29207;DHT22;16247;50.840;4.382;2023-05-07T02:54:39;16.80;99.90
29207;DHT22;16247;50.840;4.382;2023-05-07T02:57:04;16.80;99.90
29207;DHT22;16247;50.840;4.382;2023-05-07T02:59:39;16.90;99.90
29207;DHT22;16247;50.840;4.382;2023-05-07T03:02:07;16.80;99.90
29207;DHT22;16247;50.840;4.382;2023-05-07T03:07:24;16.90;99.90
29207;DHT22;16247;50.840;4.382;2023-05-07T03:09:50;17.30;99.90
29207;DHT22;16247;50.840;4.382;2023-05-07T03:12:24;17.20;99.90
29207;DHT22;16247;50.840;4.382;2023-05-07T03:14:51;17.30;99.90
29207;DHT22;16247;50.840;4.382;2023-05-07T03:17:31;17.20;99.90
29207;DHT22;16247;50.840;4.382;2023-05-07T03:20:25;17.20;99.90
29207;DHT22;16247;50.840;4.382;2023-05-07T03:25:28;17.10;99.90
29207;DHT22;16247;50.840;4.382;2023-05-07T03:30:24;17.00;99.90
29207;DHT22;16247;50.840;4.382;2023-05-07T03:33:01;16.90;99.90
29207;DHT22;16247;50.840;4.382;2023-05-07T03:35:27;16.90;99.90
29207;DHT22;16247;50.840;4.382;2023-05-07T03:40:25;17.00;99.90
29207;DHT22;16247;50.840;4.382;2023-05-07T03:42:53;17.10;99.90
29207;DHT22;16247;50.840;4.382;2023-05-07T03:45:55;17.20;99.90
29207;DHT22;16247;50.840;4.382;2023-05-07T03:48:27;17.20;99.90
29207;DHT22;16247;50.840;4.382;2023-05-07T03:50:57;17.20;99.90
29207;DHT22;16247;50.840;4.382;2023-05-07T04:02:35;17.30;99.90
29207;DHT22;16247;50.840;4.382;2023-05-07T04:08:19;17.50;99.90
29207;DHT22;16247;50.840;4.382;2023-05-07T04:13:38;17.50;99.90
29207;DHT22;16247;50.840;4.382;2023-05-07T04:16:12;17.50;99.90
29207;DHT22;16247;50.840;4.382;2023-05-07T04:22:14;17.70;99.90
29207;DHT22;16247;50.840;4.382;2023-05-07T04:24:42;17.50;99.90
29207;DHT22;16247;50.840;4.382;2023-05-07T04:27:11;17.60;99.90
29207;DHT22;16247;50.840;4.382;2023-05-07T04:29:49;17.30;99.90
29207;DHT22;16247;50.840;4.382;2023-05-07T04:37:40;17.40;99.90
29207;DHT22;16247;50.840;4.382;2023-05-07T04:40:22;17.40;99.90
29207;DHT22;16247;50.840;4.382;2023-05-07T04:42:55;17.30;99.90
29207;DHT22;16247;50.840;4.382;2023-05-07T04:45:27;17.40;99.90
29207;DHT22;16247;50.840;4.382;2023-05-07T07:59:22;18.10;99.90
29207;DHT22;16247;50.840;4.382;2023-05-07T08:01:48;17.90;99.90
29207;DHT22;16247;50.840;4.382;2023-05-07T08:04:15;17.50;99.90
29207;DHT22;16247;50.840;4.382;2023-05-07T10:21:31;19.30;99.90
29207;DHT22;16247;50.840;4.382;2023-05-07T10:57:52;19.30;99.90
29207;DHT22;16247;50.840;4.382;2023-05-07T11:12:06;19.50;99.90
29207;DHT22;16247;50.840;4.382;2023-05-07T11:17:35;19.30;99.90
29207;DHT22;16247;50.840;4.382;2023-05-07T11:20:52;19.10;99.90
29207;DHT22;16247;50.840;4.382;2023-05-07T11:26:10;19.50;99.90
29207;DHT22;16247;50.840;4.382;2023-05-07T11:28:38;19.80;99.90
29207;DHT22;16247;50.840;4.382;2023-05-07T11:31:04;20.10;99.90
29207;DHT22;16247;50.840;4.382;2023-05-07T11:33:30;19.90;99.90
29207;DHT22;16247;50.840;4.382;2023-05-07T11:35:57;20.20;99.90
29207;DHT22;16247;50.840;4.382;2023-05-07T11:38:27;20.30;99.90
29207;DHT22;16247;50.840;4.382;2023-05-07T11:40:56;20.10;99.90
29207;DHT22;16247;50.840;4.382;2023-05-07T11:43:31;20.00;99.90
29207;DHT22;16247;50.840;4.382;2023-05-07T11:46:09;20.10;99.90
29207;DHT22;16247;50.840;4.382;2023-05-07T11:48:39;19.70;99.90
29207;DHT22;16247;50.840;4.382;2023-05-07T11:51:08;19.80;99.90
29207;DHT22;16247;50.840;4.382;2023-05-07T11:53:38;19.70;99.90
29207;DHT22;16247;50.840;4.382;2023-05-07T11:58:51;20.20;99.90
29207;DHT22;16247;50.840;4.382;2023-05-07T12:01:25;20.40;99.90
29207;DHT22;16247;50.840;4.382;2023-05-07T12:03:57;20.30;99.90
29207;DHT22;16247;50.840;4.382;2023-05-07T12:06:39;20.30;99.90
29207;DHT22;16247;50.840;4.382;2023-05-07T12:09:06;20.50;99.90
29207;DHT22;16247;50.840;4.382;2023-05-07T12:11:45;20.40;99.90
29207;DHT22;16247;50.840;4.382;2023-05-07T12:14:48;20.10;99.90
29207;DHT22;16247;50.840;4.382;2023-05-07T12:20:00;20.30;99.90
29207;DHT22;16247;50.840;4.382;2023-05-07T12:22:29;20.40;99.90
29207;DHT22;16247;50.840;4.382;2023-05-07T12:24:59;20.70;99.90
29207;DHT22;16247;50.840;4.382;2023-05-07T12:27:27;20.50;99.90
29207;DHT22;16247;50.840;4.382;2023-05-07T12:29:54;20.50;99.90
29207;DHT22;16247;50.840;4.382;2023-05-07T12:32:25;20.70;99.90
29207;DHT22;16247;50.840;4.382;2023-05-07T12:34:53;20.60;99.90
29207;DHT22;16247;50.840;4.382;2023-05-07T12:37:23;20.60;99.90
29207;DHT22;16247;50.840;4.382;2023-05-07T12:40:12;20.60;99.90
29207;DHT22;16247;50.840;4.382;2023-05-07T12:42:44;20.50;99.90
29207;DHT22;16247;50.840;4.382;2023-05-07T12:45:15;20.20;99.90
29207;DHT22;16247;50.840;4.382;2023-05-07T12:47:44;20.20;99.90
29207;DHT22;16247;50.840;4.382;2023-05-07T12:50:11;20.20;99.90
29207;DHT22;16247;50.840;4.382;2023-05-07T12:52:37;20.10;99.90
29207;DHT22;16247;50.840;4.382;2023-05-07T12:55:05;20.10;99.90
29207;DHT22;16247;50.840;4.382;2023-05-07T12:57:39;20.30;99.90
29207;DHT22;16247;50.840;4.382;2023-05-07T13:00:06;20.40;99.90
29207;DHT22;16247;50.840;4.382;2023-05-07T13:02:40;20.40;99.90
29207;DHT22;16247;50.840;4.382;2023-05-07T13:05:08;20.30;99.90
29207;DHT22;16247;50.840;4.382;2023-05-07T13:07:37;20.40;99.90
29207;DHT22;16247;50.840;4.382;2023-05-07T13:10:03;20.60;99.90
29207;DHT22;16247;50.840;4.382;2023-05-07T13:12:28;20.50;99.90
29207;DHT22;16247;50.840;4.382;2023-05-07T13:14:55;20.50;99.90
29207;DHT22;16247;50.840;4.382;2023-05-07T13:17:21;20.70;99.90
29207;DHT22;16247;50.840;4.382;2023-05-07T13:19:46;20.90;99.90
29207;DHT22;16247;50.840;4.382;2023-05-07T13:22:13;20.90;99.90
29207;DHT22;16247;50.840;4.382;2023-05-07T13:24:38;20.90;99.90
29207;DHT22;16247;50.840;4.382;2023-05-07T13:27:06;20.70;99.90
29207;DHT22;16247;50.840;4.382;2023-05-07T13:29:32;20.70;99.90
29207;DHT22;16247;50.840;4.382;2023-05-07T13:31:58;20.90;99.90
29207;DHT22;16247;50.840;4.382;2023-05-07T13:34:24;20.80;99.90
29207;DHT22;16247;50.840;4.382;2023-05-07T13:36:50;20.50;99.90
29207;DHT22;16247;50.840;4.382;2023-05-07T13:39:24;20.40;99.90
29207;DHT22;16247;50.840;4.382;2023-05-07T13:41:50;20.30;99.90
29207;DHT22;16247;50.840;4.382;2023-05-07T13:44:16;20.40;99.90
29207;DHT22;16247;50.840;4.382;2023-05-07T13:46:46;20.20;99.90
29207;DHT22;16247;50.840;4.382;2023-05-07T13:51:53;20.10;99.90
29207;DHT22;16247;50.840;4.382;2023-05-07T13:54:26;20.10;99.90
29207;DHT22;16247;50.840;4.382;2023-05-07T13:56:53;20.10;99.90
29207;DHT22;16247;50.840;4.382;2023-05-07T13:59:20;20.20;99.90
29207;DHT22;16247;50.840;4.382;2023-05-07T14:01:45;20.30;99.90
29207;DHT22;16247;50.840;4.382;2023-05-07T14:04:12;20.20;99.90
29207;DHT22;16247;50.840;4.382;2023-05-07T14:06:38;20.30;99.90
29207;DHT22;16247;50.840;4.382;2023-05-07T14:09:04;20.40;99.90
29207;DHT22;16247;50.840;4.382;2023-05-07T14:11:31;20.20;99.90
29207;DHT22;16247;50.840;4.382;2023-05-07T14:13:57;20.20;99.90
29207;DHT22;16247;50.840;4.382;2023-05-07T14:16:24;20.20;99.90
29207;DHT22;16247;50.840;4.382;2023-05-07T14:18:51;20.10;99.90
29207;DHT22;16247;50.840;4.382;2023-05-07T14:21:18;20.00;99.90
29207;DHT22;16247;50.840;4.382;2023-05-07T14:23:43;20.10;99.90
29207;DHT22;16247;50.840;4.382;2023-05-07T14:26:09;20.30;99.90
29207;DHT22;16247;50.840;4.382;2023-05-07T14:28:36;20.20;99.90
29207;DHT22;16247;50.840;4.382;2023-05-07T14:31:04;20.30;99.90
29207;DHT22;16247;50.840;4.382;2023-05-07T14:33:31;20.20;99.90
29207;DHT22;16247;50.840;4.382;2023-05-07T14:35:57;20.00;99.90
29207;DHT22;16247;50.840;4.382;2023-05-07T14:38:25;20.10;99.90
29207;DHT22;16247;50.840;4.382;2023-05-07T14:40:51;20.20;99.90
29207;DHT22;16247;50.840;4.382;2023-05-07T14:43:22;20.10;99.90
29207;DHT22;16247;50.840;4.382;2023-05-07T14:45:48;20.00;99.90
29207;DHT22;16247;50.840;4.382;2023-05-07T14:50:46;20.20;99.90
29207;DHT22;16247;50.840;4.382;2023-05-07T14:53:12;20.10;99.90
29207;DHT22;16247;50.840;4.382;2023-05-07T14:55:39;20.00;99.90
29207;DHT22;16247;50.840;4.382;2023-05-07T15:30:37;20.00;99.90
29207;DHT22;16247;50.840;4.382;2023-05-07T15:33:10;20.20;99.90
29207;DHT22;16247;50.840;4.382;2023-05-07T15:35:36;20.00;99.90
29207;DHT22;16247;50.840;4.382;2023-05-07T15:38:05;20.10;99.90
29207;DHT22;16247;50.840;4.382;2023-05-07T15:40:34;20.10;99.90
29207;DHT22;16247;50.840;4.382;2023-05-07T15:43:06;20.30;99.90
29207;DHT22;16247;50.840;4.382;2023-05-07T15:45:32;20.30;99.90
29207;DHT22;16247;50.840;4.382;2023-05-07T15:47:59;20.10;99.90
29207;DHT22;16247;50.840;4.382;2023-05-07T15:50:24;19.90;99.90
29207;DHT22;16247;50.840;4.382;2023-05-07T15:52:50;20.10;99.90
29207;DHT22;16247;50.840;4.382;2023-05-07T15:55:16;20.00;99.90
29207;DHT22;16247;50.840;4.382;2023-05-07T15:57:43;20.00;99.90
29207;DHT22;16247;50.840;4.382;2023-05-07T16:00:12;19.80;99.90
29207;DHT22;16247;50.840;4.382;2023-05-07T16:02:38;19.70;99.90
29207;DHT22;16247;50.840;4.382;2023-05-07T16:05:05;19.60;99.90
29207;DHT22;16247;50.840;4.382;2023-05-07T16:07:32;19.70;99.90
29207;DHT22;16247;50.840;4.382;2023-05-07T16:10:05;19.80;99.90
29207;DHT22;16247;50.840;4.382;2023-05-07T16:12:32;19.80;99.90
29207;DHT22;16247;50.840;4.382;2023-05-07T16:15:01;19.90;99.90
29207;DHT22;16247;50.840;4.382;2023-05-07T16:17:28;19.70;99.90
29207;DHT22;16247;50.840;4.382;2023-05-07T16:19:54;19.80;99.90
29207;DHT22;16247;50.840;4.382;2023-05-07T16:22:20;19.70;99.90
29207;DHT22;16247;50.840;4.382;2023-05-07T16:24:49;19.60;99.90
29207;DHT22;16247;50.840;4.382;2023-05-07T16:27:18;19.50;99.90
29207;DHT22;16247;50.840;4.382;2023-05-07T16:29:43;19.40;99.90
29207;DHT22;16247;50.840;4.382;2023-05-07T16:32:12;19.60;99.90
29207;DHT22;16247;50.840;4.382;2023-05-07T16:34:37;19.70;99.90
29207;DHT22;16247;50.840;4.382;2023-05-07T16:39:43;19.70;99.90
29207;DHT22;16247;50.840;4.382;2023-05-07T16:42:09;19.50;99.90
29207;DHT22;16247;50.840;4.382;2023-05-07T16:44:38;19.60;99.90
29207;DHT22;16247;50.840;4.382;2023-05-07T16:47:09;19.50;99.90
29207;DHT22;16247;50.840;4.382;2023-05-07T16:49:35;19.70;99.90
29207;DHT22;16247;50.840;4.382;2023-05-07T16:52:00;19.60;99.90
29207;DHT22;16247;50.840;4.382;2023-05-07T16:54:27;19.60;99.90
29207;DHT22;16247;50.840;4.382;2023-05-07T16:59:22;19.30;99.90
29207;DHT22;16247;50.840;4.382;2023-05-07T17:04:20;19.40;99.90
29207;DHT22;16247;50.840;4.382;2023-05-07T17:06:47;19.40;99.90
29207;DHT22;16247;50.840;4.382;2023-05-07T17:09:20;19.50;99.90
29207;DHT22;16247;50.840;4.382;2023-05-07T17:11:54;19.70;99.90
29207;DHT22;16247;50.840;4.382;2023-05-07T17:14:19;19.60;99.90
29207;DHT22;16247;50.840;4.382;2023-05-07T17:16:48;19.50;99.90
29207;DHT22;16247;50.840;4.382;2023-05-07T17:21:43;19.30;99.90
29207;DHT22;16247;50.840;4.382;2023-05-07T17:24:10;19.10;99.90
29207;DHT22;16247;50.840;4.382;2023-05-07T17:26:35;19.10;99.90
29207;DHT22;16247;50.840;4.382;2023-05-07T17:29:03;19.20;99.90
29207;DHT22;16247;50.840;4.382;2023-05-07T17:31:29;19.20;99.90
29207;DHT22;16247;50.840;4.382;2023-05-07T17:33:54;19.10;99.90
29207;DHT22;16247;50.840;4.382;2023-05-07T17:36:24;19.20;99.90
29207;DHT22;16247;50.840;4.382;2023-05-07T17:38:52;19.20;99.90
29207;DHT22;16247;50.840;4.382;2023-05-07T17:41:26;19.20;99.90
29207;DHT22;16247;50.840;4.382;2023-05-07T17:43:52;19.30;99.90
29207;DHT22;16247;50.840;4.382;2023-05-07T17:46:18;19.20;99.90
29207;DHT22;16247;50.840;4.382;2023-05-07T17:48:43;19.10;99.90
29207;DHT22;16247;50.840;4.382;2023-05-07T17:51:09;19.10;99.90
29207;DHT22;16247;50.840;4.382;2023-05-07T17:53:35;19.10;99.90
29207;DHT22;16247;50.840;4.382;2023-05-07T17:56:02;19.20;99.90
29207;DHT22;16247;50.840;4.382;2023-05-07T17:58:30;19.20;99.90
29207;DHT22;16247;50.840;4.382;2023-05-07T18:00:56;19.20;99.90
29207;DHT22;16247;50.840;4.382;2023-05-07T18:03:22;19.20;99.90
29207;DHT22;16247;50.840;4.382;2023-05-07T18:05:51;19.10;99.90
29207;DHT22;16247;50.840;4.382;2023-05-07T18:08:18;19.10;99.90
29207;DHT22;16247;50.840;4.382;2023-05-07T18:13:31;19.10;99.90
29207;DHT22;16247;50.840;4.382;2023-05-07T18:15:56;19.00;99.90
29207;DHT22;16247;50.840;4.382;2023-05-07T18:18:22;19.00;99.90
29207;DHT22;16247;50.840;4.382;2023-05-07T18:20:50;19.00;99.90
29207;DHT22;16247;50.840;4.382;2023-05-07T18:23:16;18.80;99.90
29207;DHT22;16247;50.840;4.382;2023-05-07T18:25:42;18.70;99.90
29207;DHT22;16247;50.840;4.382;2023-05-07T18:33:38;18.50;99.90
29207;DHT22;16247;50.840;4.382;2023-05-07T18:36:04;18.40;99.90
29207;DHT22;16247;50.840;4.382;2023-05-07T18:38:31;18.50;99.90
29207;DHT22;16247;50.840;4.382;2023-05-07T18:41:01;18.40;99.90
29207;DHT22;16247;50.840;4.382;2023-05-07T18:43:29;18.40;99.90
29207;DHT22;16247;50.840;4.382;2023-05-07T18:45:57;18.50;99.90
29207;DHT22;16247;50.840;4.382;2023-05-07T18:48:31;18.60;99.90
29207;DHT22;16247;50.840;4.382;2023-05-07T18:50:57;18.50;99.90
29207;DHT22;16247;50.840;4.382;2023-05-07T18:53:23;18.50;99.90
29207;DHT22;16247;50.840;4.382;2023-05-07T18:55:49;18.60;99.90
29207;DHT22;16247;50.840;4.382;2023-05-07T18:58:15;18.50;99.90
29207;DHT22;16247;50.840;4.382;2023-05-07T19:00:43;18.60;99.90
29207;DHT22;16247;50.840;4.382;2023-05-07T19:03:08;18.50;99.90
29207;DHT22;16247;50.840;4.382;2023-05-07T19:05:35;18.50;99.90
29207;DHT22;16247;50.840;4.382;2023-05-07T19:08:00;18.50;99.90
29207;DHT22;16247;50.840;4.382;2023-05-07T19:10:27;18.40;99.90
29207;DHT22;16247;50.840;4.382;2023-05-07T19:12:56;18.30;99.90
29207;DHT22;16247;50.840;4.382;2023-05-07T19:15:22;18.20;99.90
29207;DHT22;16247;50.840;4.382;2023-05-07T19:17:48;18.20;99.90
29207;DHT22;16247;50.840;4.382;2023-05-07T19:20:14;18.20;99.90
29207;DHT22;16247;50.840;4.382;2023-05-07T19:22:42;18.10;99.90
29207;DHT22;16247;50.840;4.382;2023-05-07T19:25:08;18.10;99.90
29207;DHT22;16247;50.840;4.382;2023-05-07T19:27:34;18.00;99.90
29207;DHT22;16247;50.840;4.382;2023-05-07T19:29:59;18.10;99.90
29207;DHT22;16247;50.840;4.382;2023-05-07T19:32:25;18.10;99.90
29207;DHT22;16247;50.840;4.382;2023-05-07T19:34:55;17.90;99.90
29207;DHT22;16247;50.840;4.382;2023-05-07T19:37:21;18.00;99.90
29207;DHT22;16247;50.840;4.382;2023-05-07T19:39:53;18.10;99.90
29207;DHT22;16247;50.840;4.382;2023-05-07T19:42:18;18.10;99.90
29207;DHT22;16247;50.840;4.382;2023-05-07T19:44:46;18.10;99.90
29207;DHT22;16247;50.840;4.382;2023-05-07T19:47:13;18.00;99.90
29207;DHT22;16247;50.840;4.382;2023-05-07T19:49:41;18.10;99.90
29207;DHT22;16247;50.840;4.382;2023-05-07T19:52:06;18.00;99.90
29207;DHT22;16247;50.840;4.382;2023-05-07T19:54:32;17.90;99.90
29207;DHT22;16247;50.840;4.382;2023-05-07T19:56:57;18.00;99.90
29207;DHT22;16247;50.840;4.382;2023-05-07T19:59:24;18.00;99.90
29207;DHT22;16247;50.840;4.382;2023-05-07T20:01:57;18.20;99.90
29207;DHT22;16247;50.840;4.382;2023-05-07T20:04:22;17.90;99.90
29207;DHT22;16247;50.840;4.382;2023-05-07T20:06:54;18.10;99.90
29207;DHT22;16247;50.840;4.382;2023-05-07T20:09:19;18.00;99.90
29207;DHT22;16247;50.840;4.382;2023-05-07T20:11:46;18.10;99.90
29207;DHT22;16247;50.840;4.382;2023-05-07T20:16:40;18.20;99.90
29207;DHT22;16247;50.840;4.382;2023-05-07T20:19:05;18.20;99.90
29207;DHT22;16247;50.840;4.382;2023-05-07T20:21:31;18.30;99.90
29207;DHT22;16247;50.840;4.382;2023-05-07T20:23:57;18.20;99.90
29207;DHT22;16247;50.840;4.382;2023-05-07T20:26:24;18.20;99.90
29207;DHT22;16247;50.840;4.382;2023-05-07T20:28:51;18.30;99.90
29207;DHT22;16247;50.840;4.382;2023-05-07T20:31:17;18.20;99.90
29207;DHT22;16247;50.840;4.382;2023-05-07T20:33:43;18.10;99.90
29207;DHT22;16247;50.840;4.382;2023-05-07T20:36:10;18.10;99.90
29207;DHT22;16247;50.840;4.382;2023-05-07T20:38:35;18.20;99.90
29207;DHT22;16247;50.840;4.382;2023-05-07T20:41:07;18.30;99.90
29207;DHT22;16247;50.840;4.382;2023-05-07T20:43:34;18.10;99.90
29207;DHT22;16247;50.840;4.382;2023-05-07T20:46:00;18.10;99.90
29207;DHT22;16247;50.840;4.382;2023-05-07T20:48:28;18.20;99.90
29207;DHT22;16247;50.840;4.382;2023-05-07T20:51:00;18.20;99.90
29207;DHT22;16247;50.840;4.382;2023-05-07T20:53:29;18.10;99.90
29207;DHT22;16247;50.840;4.382;2023-05-07T20:55:55;18.20;99.90
29207;DHT22;16247;50.840;4.382;2023-05-07T20:58:21;18.20;99.90
29207;DHT22;16247;50.840;4.382;2023-05-07T21:00:50;18.10;99.90
29207;DHT22;16247;50.840;4.382;2023-05-07T21:03:16;18.00;99.90
29207;DHT22;16247;50.840;4.382;2023-05-07T21:05:41;18.00;99.90
29207;DHT22;16247;50.840;4.382;2023-05-07T21:08:07;18.00;99.90
29207;DHT22;16247;50.840;4.382;2023-05-07T21:10:33;18.00;99.90
29207;DHT22;16247;50.840;4.382;2023-05-07T21:12:59;18.00;99.90
29207;DHT22;16247;50.840;4.382;2023-05-07T21:15:26;17.90;99.90
29207;DHT22;16247;50.840;4.382;2023-05-07T21:18:03;17.80;99.90
29207;DHT22;16247;50.840;4.382;2023-05-07T21:20:29;17.80;99.90
29207;DHT22;16247;50.840;4.382;2023-05-07T21:22:55;17.80;99.90
29207;DHT22;16247;50.840;4.382;2023-05-07T21:25:20;17.70;99.90
29207;DHT22;16247;50.840;4.382;2023-05-07T21:27:46;17.70;99.90
29207;DHT22;16247;50.840;4.382;2023-05-07T21:30:12;17.90;99.90
29207;DHT22;16247;50.840;4.382;2023-05-07T21:32:41;17.80;99.90
29207;DHT22;16247;50.840;4.382;2023-05-07T21:35:09;17.90;99.90
29207;DHT22;16247;50.840;4.382;2023-05-07T21:37:34;17.90;99.90
29207;DHT22;16247;50.840;4.382;2023-05-07T21:40:00;17.90;99.90
29207;DHT22;16247;50.840;4.382;2023-05-07T21:42:27;17.80;99.90
29207;DHT22;16247;50.840;4.382;2023-05-07T21:44:54;17.80;99.90
29207;DHT22;16247;50.840;4.382;2023-05-07T21:47:19;17.70;99.90
29207;DHT22;16247;50.840;4.382;2023-05-07T21:49:46;17.70;99.90
29207;DHT22;16247;50.840;4.382;2023-05-07T21:52:12;17.70;99.90
29207;DHT22;16247;50.840;4.382;2023-05-07T21:54:39;17.60;99.90
29207;DHT22;16247;50.840;4.382;2023-05-07T21:57:05;17.50;99.90
29207;DHT22;16247;50.840;4.382;2023-05-07T21:59:30;17.50;99.90
29207;DHT22;16247;50.840;4.382;2023-05-07T22:01:59;17.50;99.90
29207;DHT22;16247;50.840;4.382;2023-05-07T22:04:25;17.50;99.90
29207;DHT22;16247;50.840;4.382;2023-05-07T22:06:51;17.60;99.90
29207;DHT22;16247;50.840;4.382;2023-05-07T22:09:17;17.60;99.90
29207;DHT22;16247;50.840;4.382;2023-05-07T22:11:42;17.60;99.90
29207;DHT22;16247;50.840;4.382;2023-05-07T22:14:08;17.70;99.90
29207;DHT22;16247;50.840;4.382;2023-05-07T22:16:34;17.70;99.90
29207;DHT22;16247;50.840;4.382;2023-05-07T22:19:00;17.70;99.90
29207;DHT22;16247;50.840;4.382;2023-05-07T22:21:26;17.70;99.90
29207;DHT22;16247;50.840;4.382;2023-05-07T22:23:51;17.70;99.90
29207;DHT22;16247;50.840;4.382;2023-05-07T22:26:18;17.70;99.90
29207;DHT22;16247;50.840;4.382;2023-05-07T22:28:43;17.60;99.90
29207;DHT22;16247;50.840;4.382;2023-05-07T22:31:09;17.70;99.90
29207;DHT22;16247;50.840;4.382;2023-05-07T22:33:35;17.70;99.90
29207;DHT22;16247;50.840;4.382;2023-05-07T22:36:01;17.70;99.90
29207;DHT22;16247;50.840;4.382;2023-05-07T22:38:27;17.70;99.90
29207;DHT22;16247;50.840;4.382;2023-05-07T22:40:53;17.80;99.90
29207;DHT22;16247;50.840;4.382;2023-05-07T22:43:20;17.80;99.90
29207;DHT22;16247;50.840;4.382;2023-05-07T22:45:45;17.70;99.90
29207;DHT22;16247;50.840;4.382;2023-05-07T22:48:12;17.80;99.90
29207;DHT22;16247;50.840;4.382;2023-05-07T22:50:38;17.80;99.90
29207;DHT22;16247;50.840;4.382;2023-05-07T22:53:05;17.80;99.90
29207;DHT22;16247;50.840;4.382;2023-05-07T22:55:32;17.80;99.90
29207;DHT22;16247;50.840;4.382;2023-05-07T22:57:58;17.90;99.90
29207;DHT22;16247;50.840;4.382;2023-05-07T23:00:25;17.80;99.90
29207;DHT22;16247;50.840;4.382;2023-05-07T23:02:52;17.90;99.90
29207;DHT22;16247;50.840;4.382;2023-05-07T23:05:18;17.90;99.90
29207;DHT22;16247;50.840;4.382;2023-05-07T23:07:43;17.90;99.90
29207;DHT22;16247;50.840;4.382;2023-05-07T23:10:10;17.70;99.90
29207;DHT22;16247;50.840;4.382;2023-05-07T23:12:36;17.70;99.90
29207;DHT22;16247;50.840;4.382;2023-05-07T23:15:03;17.70;99.90
29207;DHT22;16247;50.840;4.382;2023-05-07T23:17:30;17.70;99.90
29207;DHT22;16247;50.840;4.382;2023-05-07T23:19:59;17.70;99.90
29207;DHT22;16247;50.840;4.382;2023-05-07T23:28:31;17.80;99.90
29207;DHT22;16247;50.840;4.382;2023-05-07T23:31:01;17.90;99.90
29207;DHT22;16247;50.840;4.382;2023-05-07T23:33:27;17.70;99.90
29207;DHT22;16247;50.840;4.382;2023-05-07T23:35:59;17.60;99.90
29207;DHT22;16247;50.840;4.382;2023-05-07T23:38:25;17.70;99.90
29207;DHT22;16247;50.840;4.382;2023-05-07T23:40:53;17.60;99.90
29207;DHT22;16247;50.840;4.382;2023-05-07T23:43:19;17.70;99.90
29207;DHT22;16247;50.840;4.382;2023-05-07T23:45:45;17.70;99.90
29207;DHT22;16247;50.840;4.382;2023-05-07T23:48:14;17.60;99.90
29207;DHT22;16247;50.840;4.382;2023-05-07T23:50:41;17.70;99.90
29207;DHT22;16247;50.840;4.382;2023-05-07T23:53:07;17.70;99.90
29207;DHT22;16247;50.840;4.382;2023-05-07T23:55:32;17.70;99.90
29207;DHT22;16247;50.840;4.382;2023-05-07T23:57:58;17.60;99.90
